createdAt,value
2023-02-24T00:01:18.829Z,99895.09
2023-02-24T00:06:21.972Z,99888.81
2023-02-24T00:11:24.891Z,99881.72
2023-02-24T00:16:28.280Z,99867.69
2023-02-24T00:21:31.757Z,99874.63
2023-02-24T00:26:34.914Z,99866.19
2023-02-24T00:31:42.048Z,99865.06
2023-02-24T00:36:45.201Z,99861.59
2023-02-24T00:41:47.979Z,99856.31
2023-02-24T00:46:51.596Z,99857.75
2023-02-24T00:51:55.256Z,99857.34
2023-02-24T00:56:58.245Z,99848.91
2023-02-24T01:02:03.674Z,99844.47
2023-02-24T01:07:11.103Z,99833.91
2023-02-24T01:12:32.739Z,99827.81
2023-02-24T01:17:37.860Z,99823.66
2023-02-24T01:22:40.978Z,99811.44
2023-02-24T01:27:43.960Z,99803.34
2023-02-24T01:32:47.748Z,99797.25
2023-02-24T01:37:50.963Z,99789.88
2023-02-24T01:42:53.932Z,99780.16
2023-02-24T01:48:03.169Z,99772.25
2023-02-24T01:53:08.502Z,99768.94
2023-02-24T01:58:21.026Z,99768.09
2023-02-24T02:03:42.126Z,99756.84
2023-02-24T02:08:45.842Z,99756.19
2023-02-24T02:13:51.194Z,99750.75
2023-02-24T02:19:35.216Z,99741.16
2023-02-24T02:24:52.820Z,99739.19
2023-02-24T02:30:34.753Z,99738.00
2023-02-24T02:35:46.498Z,99737.31
2023-02-24T02:41:02.425Z,99726.78
2023-02-24T02:46:15.854Z,99714.41
2023-02-24T02:51:28.152Z,99725.63
2023-02-24T02:56:42.611Z,99714.41
2023-02-24T03:01:47.300Z,99709.13
2023-02-24T03:06:57.243Z,99701.38
2023-02-24T03:12:08.384Z,99707.94
2023-02-24T03:17:21.540Z,99690.75
2023-02-24T03:22:35.074Z,99690.22
2023-02-24T03:27:53.580Z,99688.84
2023-02-24T03:33:01.840Z,99685.84
2023-02-24T03:38:06.485Z,99687.16
2023-02-24T03:43:31.233Z,99682.28
2023-02-24T03:48:40.249Z,99669.25
2023-02-24T03:54:30.887Z,99667.88
2023-02-24T03:59:56.335Z,99665.56
2023-02-24T04:05:09.754Z,99652.38
2023-02-24T04:10:31.484Z,99647.94
2023-02-24T04:15:44.110Z,99635.88
2023-02-24T04:20:53.342Z,99634.53
2023-02-24T04:25:56.450Z,99635.47
2023-02-24T04:31:06.206Z,99622.78
2023-02-24T04:36:12.921Z,99619.44
2023-02-24T04:41:21.508Z,99616.44
2023-02-24T04:46:25.091Z,99606.47
2023-02-24T04:51:31.873Z,99596.25
2023-02-24T04:56:36.205Z,99596.41
2023-02-24T05:01:42.383Z,99583.38
2023-02-24T05:06:46.568Z,99572.00
2023-02-24T05:11:52.574Z,99574.94
2023-02-24T05:17:00.418Z,99572.59
2023-02-24T05:22:04.815Z,99575.38
2023-02-24T05:27:08.058Z,99568.47
2023-02-24T05:32:11.123Z,99571.38
2023-02-24T05:37:16.874Z,99563.97
2023-02-24T05:42:20.079Z,99562.59
2023-02-24T05:47:25.101Z,99563.84
2023-02-24T05:52:28.049Z,99564.84
2023-02-24T05:57:35.480Z,99555.97
2023-02-24T06:02:38.565Z,99562.59
2023-02-24T06:07:43.230Z,99567.53
2023-02-24T06:12:46.422Z,99568.63
2023-02-24T06:17:49.747Z,99559.13
2023-02-24T06:22:58.275Z,99563.34
2023-02-24T06:28:01.962Z,99561.28
2023-02-24T06:33:06.067Z,99557.47
2023-02-24T06:38:09.351Z,99546.69
2023-02-24T06:43:12.344Z,99547.13
2023-02-24T06:48:15.346Z,99542.91
2023-02-24T06:53:19.051Z,99540.53
2023-02-24T06:58:24.353Z,99533.00
2023-02-24T07:03:50.297Z,99521.19
2023-02-24T07:08:53.586Z,99518.28
2023-02-24T07:13:57.635Z,99516.88
2023-02-24T07:19:03.947Z,99511.63
2023-02-24T07:24:25.174Z,99507.66
2023-02-24T07:29:32.465Z,99504.84
2023-02-24T07:34:40.089Z,99500.88
2023-02-24T07:39:43.417Z,99488.25
2023-02-24T07:44:51.775Z,99479.47
2023-02-24T07:49:55.580Z,99486.22
2023-02-24T07:54:58.693Z,99485.38
2023-02-24T08:00:13.134Z,99484.69
2023-02-24T08:05:21.915Z,99485.13
2023-02-24T08:10:24.976Z,99479.31
2023-02-24T08:15:34.105Z,99472.03
2023-02-24T08:20:52.200Z,99469.84
2023-02-24T08:25:55.538Z,99454.72
2023-02-24T08:30:59.137Z,99446.56
2023-02-24T08:36:02.756Z,99438.38
2023-02-24T08:41:21.486Z,99433.22
2023-02-24T08:46:33.021Z,99437.34
2023-02-24T08:51:46.336Z,99421.66
2023-02-24T08:56:50.048Z,99412.69
2023-02-24T09:02:10.812Z,99403.31
2023-02-24T09:07:24.257Z,99397.81
2023-02-24T09:12:29.864Z,99388.34
2023-02-24T09:17:45.627Z,99384.47
2023-02-24T09:22:58.105Z,99387.16
2023-02-24T09:28:29.291Z,99374.22
2023-02-24T09:33:39.855Z,99359.09
2023-02-24T09:38:59.560Z,99360.84
2023-02-24T09:44:20.025Z,99351.81
2023-02-24T09:49:40.233Z,99346.72
2023-02-24T09:55:15.679Z,99341.03
2023-02-24T10:00:25.845Z,99333.31
2023-02-24T10:05:49.457Z,99332.53
2023-02-24T10:11:09.437Z,99326.78
2023-02-24T10:16:37.107Z,99329.69
2023-02-24T10:22:27.651Z,99320.78
2023-02-24T10:27:59.428Z,99307.63
2023-02-24T10:33:05.457Z,99300.19
2023-02-24T10:38:08.706Z,99288.75
2023-02-24T10:43:18.782Z,99275.34
2023-02-24T10:48:40.187Z,99256.06
2023-02-24T10:53:53.077Z,99243.63
2023-02-24T10:59:36.247Z,99238.13
2023-02-24T11:04:58.638Z,99230.13
2023-02-24T11:10:25.876Z,99213.25
2023-02-24T11:16:00.355Z,99208.88
2023-02-24T11:21:11.095Z,99184.63
2023-02-24T11:26:23.489Z,99183.75
2023-02-24T11:31:49.178Z,99173.75
2023-02-24T11:37:32.438Z,99156.09
2023-02-24T11:42:56.321Z,99149.97
2023-02-24T11:48:20.120Z,99142.41
2023-02-24T11:53:34.469Z,99124.75
2023-02-24T11:58:58.371Z,99130.22
2023-02-24T12:04:32.647Z,99110.19
2023-02-24T12:10:16.058Z,99109.88
2023-02-24T12:15:27.383Z,99097.97
2023-02-24T12:21:02.146Z,99079.53
2023-02-24T12:27:02.657Z,99088.16
2023-02-24T12:32:33.270Z,99072.41
2023-02-24T12:38:09.468Z,99070.78
2023-02-24T12:43:32.475Z,99064.59
2023-02-24T12:49:24.093Z,99048.63
2023-02-24T12:54:43.612Z,99035.44
2023-02-24T12:59:47.439Z,99041.47
2023-02-24T13:05:11.110Z,99024.44
2023-02-24T13:10:58.224Z,99025.94
2023-02-24T13:16:01.320Z,99011.66
2023-02-24T13:21:09.745Z,99015.00
2023-02-24T13:26:22.151Z,99005.78
2023-02-24T13:31:26.471Z,99005.06
2023-02-24T13:36:31.849Z,99010.78
2023-02-24T13:41:41.189Z,99000.66
2023-02-24T13:47:20.509Z,99000.13
2023-02-24T13:52:47.596Z,99002.38
2023-02-24T13:58:20.461Z,98997.38
2023-02-24T14:03:28.180Z,98988.00
2023-02-24T14:08:51.005Z,98980.88
2023-02-24T14:13:56.558Z,98978.56
2023-02-24T14:19:02.420Z,98977.41
2023-02-24T14:24:13.610Z,98968.09
2023-02-24T14:29:27.313Z,98959.97
2023-02-24T14:34:33.988Z,98956.31
2023-02-24T14:39:37.379Z,98945.19
2023-02-24T14:44:50.973Z,98945.97
2023-02-24T14:50:02.408Z,98940.00
2023-02-24T14:55:08.792Z,98944.16
2023-02-24T15:00:24.770Z,98928.16
2023-02-24T15:05:30.897Z,98917.88
2023-02-24T15:10:34.140Z,98918.78
2023-02-24T15:15:39.299Z,98906.59
2023-02-24T15:20:43.191Z,98904.63
2023-02-24T15:25:46.729Z,98896.53
2023-02-24T15:31:10.883Z,98897.50
2023-02-24T15:36:24.276Z,98882.81
2023-02-24T15:41:48.292Z,98883.31
2023-02-24T15:46:51.503Z,98872.38
2023-02-24T15:51:59.860Z,98871.63
2023-02-24T15:57:05.380Z,98876.81
2023-02-24T16:02:35.058Z,98871.78
2023-02-24T16:07:39.742Z,98868.31
2023-02-24T16:13:00.238Z,98862.22
2023-02-24T16:18:03.956Z,98856.50
2023-02-24T16:23:06.704Z,98845.69
2023-02-24T16:28:15.733Z,98846.91
2023-02-24T16:33:23.939Z,98833.41
2023-02-24T16:38:27.230Z,98825.03
2023-02-24T16:43:30.237Z,98825.03
2023-02-24T16:48:37.473Z,98815.00
2023-02-24T16:53:41.272Z,98813.81
2023-02-24T16:58:44.211Z,98808.50
2023-02-24T17:03:54.004Z,98810.56
2023-02-24T17:08:56.976Z,98816.72
2023-02-24T17:14:00.185Z,98794.03
2023-02-24T17:19:03.190Z,98791.38
2023-02-24T17:24:06.595Z,98789.91
2023-02-24T17:29:10.540Z,98787.47
2023-02-24T17:34:13.439Z,98781.13
2023-02-24T17:39:16.525Z,98788.28
2023-02-24T17:44:19.280Z,98777.06
2023-02-24T17:49:22.188Z,98764.56
2023-02-24T17:54:25.199Z,98765.38
2023-02-24T17:59:29.269Z,98757.84
2023-02-24T18:04:32.308Z,98749.66
2023-02-24T18:09:35.727Z,98744.13
2023-02-24T18:14:38.726Z,98736.56
2023-02-24T18:19:42.041Z,98731.25
2023-02-24T18:24:45.041Z,98717.75
2023-02-24T18:29:48.103Z,98719.41
2023-02-24T18:34:51.096Z,98705.91
2023-02-24T18:39:54.123Z,98701.78
2023-02-24T18:44:57.194Z,98696.91
2023-02-24T18:50:00.223Z,98691.38
2023-02-24T18:55:04.042Z,98692.41
2023-02-24T19:00:07.981Z,98678.53
2023-02-24T19:05:11.209Z,98675.66
2023-02-24T19:10:14.165Z,98668.72
2023-02-24T19:15:19.654Z,98647.84
2023-02-24T19:20:22.825Z,98632.34
2023-02-24T19:25:25.703Z,98631.91
2023-02-24T19:30:28.654Z,98611.72
2023-02-24T19:35:31.650Z,98611.09
2023-02-24T19:40:37.935Z,98596.16
2023-02-24T19:45:44.343Z,98604.34
2023-02-24T19:50:47.381Z,98597.00
2023-02-24T19:55:51.133Z,98604.38
2023-02-24T20:00:54.194Z,98597.03
2023-02-24T20:05:57.216Z,98604.41
2023-02-24T20:11:05.739Z,98614.22
2023-02-24T20:16:15.754Z,98605.63
2023-02-24T20:21:18.687Z,98603.34
2023-02-24T20:26:22.003Z,98581.69
2023-02-24T20:31:25.006Z,98572.09
2023-02-24T20:36:29.619Z,98577.19
2023-02-24T20:41:33.572Z,98584.34
2023-02-24T20:46:37.526Z,98578.22
2023-02-24T20:51:41.127Z,98571.91
2023-02-24T20:56:45.726Z,98568.22
2023-02-24T21:01:50.442Z,98570.28
2023-02-24T21:06:54.399Z,98571.09
2023-02-24T21:11:57.700Z,98553.53
2023-02-24T21:17:00.629Z,98552.09
2023-02-24T21:22:05.407Z,98554.13
2023-02-24T21:27:09.586Z,98552.25
2023-02-24T21:32:12.669Z,98553.06
2023-02-24T21:37:15.935Z,98544.72
2023-02-24T21:42:19.155Z,98540.22
2023-02-24T21:47:21.902Z,98540.41
2023-02-24T21:52:25.154Z,98537.13
2023-02-24T21:57:28.627Z,98534.25
2023-02-24T22:02:31.515Z,98534.00
2023-02-24T22:07:36.921Z,98522.78
2023-02-24T22:12:40.758Z,98523.97
2023-02-24T22:17:43.519Z,98521.94
2023-02-24T22:22:46.408Z,98523.72
2023-02-24T22:27:49.414Z,98507.63
2023-02-24T22:32:52.502Z,98510.44
2023-02-24T22:37:55.587Z,98505.28
2023-02-24T22:42:58.828Z,98495.66
2023-02-24T22:48:01.827Z,98499.50
2023-02-24T22:53:05.965Z,98480.88
2023-02-24T22:58:09.446Z,98473.69
2023-02-24T23:03:19.919Z,98468.66
2023-02-24T23:08:23.759Z,98465.63
2023-02-24T23:13:26.788Z,98456.69
2023-02-24T23:18:30.962Z,98453.69
2023-02-24T23:23:34.832Z,98446.97
2023-02-24T23:28:39.105Z,98445.31
2023-02-24T23:33:42.023Z,98433.09
2023-02-24T23:38:45.698Z,98428.84
2023-02-24T23:43:48.984Z,98423.94
2023-02-24T23:48:54.509Z,98422.31
2023-02-24T23:53:57.461Z,98411.16
2023-02-24T23:59:00.553Z,98402.94
